sensor_id;sensor_type;location;lat;lon;timestamp;P1;durP1;ratioP1;P2;durP2;ratioP2
727;SDS011;347;48.780;9.158;2024-03-06T00:00:47;7.67;;;7.27;;
727;SDS011;347;48.780;9.158;2024-03-06T00:03:12;8.10;;;7.60;;
727;SDS011;347;48.780;9.158;2024-03-06T00:05:38;7.63;;;7.23;;
727;SDS011;347;48.780;9.158;2024-03-06T00:08:03;7.40;;;7.10;;
727;SDS011;347;48.780;9.158;2024-03-06T00:10:29;7.60;;;7.30;;
727;SDS011;347;48.780;9.158;2024-03-06T00:12:55;7.57;;;7.27;;
727;SDS011;347;48.780;9.158;2024-03-06T00:15:20;7.60;;;7.20;;
727;SDS011;347;48.780;9.158;2024-03-06T00:17:46;8.00;;;7.60;;
727;SDS011;347;48.780;9.158;2024-03-06T00:20:11;8.40;;;7.90;;
727;SDS011;347;48.780;9.158;2024-03-06T00:22:37;8.00;;;7.50;;
727;SDS011;347;48.780;9.158;2024-03-06T00:25:03;7.17;;;6.83;;
727;SDS011;347;48.780;9.158;2024-03-06T00:27:29;6.97;;;6.67;;
727;SDS011;347;48.780;9.158;2024-03-06T00:29:54;6.70;;;6.40;;
727;SDS011;347;48.780;9.158;2024-03-06T00:32:20;7.07;;;6.77;;
727;SDS011;347;48.780;9.158;2024-03-06T00:34:45;6.60;;;6.30;;
727;SDS011;347;48.780;9.158;2024-03-06T00:37:11;7.03;;;6.63;;
727;SDS011;347;48.780;9.158;2024-03-06T00:39:36;7.40;;;7.00;;
727;SDS011;347;48.780;9.158;2024-03-06T00:42:05;7.53;;;6.93;;
727;SDS011;347;48.780;9.158;2024-03-06T00:44:35;6.83;;;6.53;;
727;SDS011;347;48.780;9.158;2024-03-06T00:47:00;8.50;;;7.90;;
727;SDS011;347;48.780;9.158;2024-03-06T00:49:26;8.50;;;7.80;;
727;SDS011;347;48.780;9.158;2024-03-06T00:51:51;7.60;;;7.30;;
727;SDS011;347;48.780;9.158;2024-03-06T00:54:17;8.03;;;7.63;;
727;SDS011;347;48.780;9.158;2024-03-06T00:56:42;7.70;;;7.30;;
727;SDS011;347;48.780;9.158;2024-03-06T00:59:09;7.23;;;7.00;;
727;SDS011;347;48.780;9.158;2024-03-06T01:01:35;7.93;;;7.53;;
727;SDS011;347;48.780;9.158;2024-03-06T01:04:01;8.20;;;7.80;;
727;SDS011;347;48.780;9.158;2024-03-06T01:06:27;7.73;;;7.33;;
727;SDS011;347;48.780;9.158;2024-03-06T01:08:53;8.37;;;7.83;;
727;SDS011;347;48.780;9.158;2024-03-06T01:11:19;8.27;;;7.70;;
727;SDS011;347;48.780;9.158;2024-03-06T01:13:45;7.30;;;7.00;;
727;SDS011;347;48.780;9.158;2024-03-06T01:16:10;7.73;;;7.23;;
727;SDS011;347;48.780;9.158;2024-03-06T01:18:36;7.20;;;6.90;;
727;SDS011;347;48.780;9.158;2024-03-06T01:21:01;7.37;;;6.50;;
727;SDS011;347;48.780;9.158;2024-03-06T01:23:28;7.47;;;7.17;;
727;SDS011;347;48.780;9.158;2024-03-06T01:25:54;7.60;;;7.10;;
727;SDS011;347;48.780;9.158;2024-03-06T01:28:19;7.30;;;7.00;;
727;SDS011;347;48.780;9.158;2024-03-06T01:30:45;7.33;;;7.03;;
727;SDS011;347;48.780;9.158;2024-03-06T01:33:11;7.53;;;7.03;;
727;SDS011;347;48.780;9.158;2024-03-06T01:35:36;7.37;;;6.87;;
727;SDS011;347;48.780;9.158;2024-03-06T01:38:02;7.10;;;6.80;;
727;SDS011;347;48.780;9.158;2024-03-06T01:40:28;7.27;;;6.77;;
727;SDS011;347;48.780;9.158;2024-03-06T01:42:57;7.50;;;7.10;;
727;SDS011;347;48.780;9.158;2024-03-06T01:45:22;6.43;;;6.13;;
727;SDS011;347;48.780;9.158;2024-03-06T01:47:48;6.97;;;6.57;;
727;SDS011;347;48.780;9.158;2024-03-06T01:50:15;7.23;;;6.93;;
727;SDS011;347;48.780;9.158;2024-03-06T01:52:41;7.43;;;7.07;;
727;SDS011;347;48.780;9.158;2024-03-06T01:55:11;7.73;;;7.23;;
727;SDS011;347;48.780;9.158;2024-03-06T01:57:38;7.80;;;7.30;;
727;SDS011;347;48.780;9.158;2024-03-06T02:00:04;7.80;;;7.30;;
727;SDS011;347;48.780;9.158;2024-03-06T02:02:33;7.97;;;7.57;;
727;SDS011;347;48.780;9.158;2024-03-06T02:05:00;8.10;;;7.60;;
727;SDS011;347;48.780;9.158;2024-03-06T02:07:26;7.87;;;7.47;;
727;SDS011;347;48.780;9.158;2024-03-06T02:09:57;7.13;;;6.83;;
727;SDS011;347;48.780;9.158;2024-03-06T02:12:23;7.50;;;7.17;;
727;SDS011;347;48.780;9.158;2024-03-06T02:14:48;7.70;;;7.30;;
727;SDS011;347;48.780;9.158;2024-03-06T02:17:14;7.80;;;7.30;;
727;SDS011;347;48.780;9.158;2024-03-06T02:19:40;7.93;;;7.63;;
727;SDS011;347;48.780;9.158;2024-03-06T02:22:10;7.20;;;6.80;;
727;SDS011;347;48.780;9.158;2024-03-06T02:24:36;7.67;;;7.20;;
727;SDS011;347;48.780;9.158;2024-03-06T02:27:03;7.20;;;6.90;;
727;SDS011;347;48.780;9.158;2024-03-06T02:29:32;7.40;;;7.10;;
727;SDS011;347;48.780;9.158;2024-03-06T02:32:00;8.03;;;7.73;;
727;SDS011;347;48.780;9.158;2024-03-06T02:34:29;8.30;;;7.90;;
727;SDS011;347;48.780;9.158;2024-03-06T02:36:57;8.73;;;8.33;;
727;SDS011;347;48.780;9.158;2024-03-06T02:39:23;8.67;;;8.17;;
727;SDS011;347;48.780;9.158;2024-03-06T02:41:49;10.00;;;9.50;;
727;SDS011;347;48.780;9.158;2024-03-06T02:44:14;9.27;;;8.77;;
727;SDS011;347;48.780;9.158;2024-03-06T02:46:42;10.33;;;9.63;;
727;SDS011;347;48.780;9.158;2024-03-06T02:49:14;11.27;;;10.60;;
727;SDS011;347;48.780;9.158;2024-03-06T02:51:41;11.70;;;11.07;;
727;SDS011;347;48.780;9.158;2024-03-06T02:54:06;11.10;;;10.50;;
727;SDS011;347;48.780;9.158;2024-03-06T02:56:32;11.17;;;10.57;;
727;SDS011;347;48.780;9.158;2024-03-06T02:58:57;9.83;;;9.33;;
727;SDS011;347;48.780;9.158;2024-03-06T03:01:27;8.53;;;8.03;;
727;SDS011;347;48.780;9.158;2024-03-06T03:03:53;9.73;;;9.13;;
727;SDS011;347;48.780;9.158;2024-03-06T03:06:19;9.33;;;8.93;;
727;SDS011;347;48.780;9.158;2024-03-06T03:08:45;9.17;;;8.67;;
727;SDS011;347;48.780;9.158;2024-03-06T03:11:10;8.73;;;8.33;;
727;SDS011;347;48.780;9.158;2024-03-06T03:13:36;9.20;;;8.80;;
727;SDS011;347;48.780;9.158;2024-03-06T03:16:02;10.23;;;9.53;;
727;SDS011;347;48.780;9.158;2024-03-06T03:18:34;9.33;;;8.73;;
727;SDS011;347;48.780;9.158;2024-03-06T03:21:10;10.00;;;9.30;;
727;SDS011;347;48.780;9.158;2024-03-06T03:24:18;9.20;;;8.70;;
727;SDS011;347;48.780;9.158;2024-03-06T03:27:38;9.33;;;8.83;;
727;SDS011;347;48.780;9.158;2024-03-06T03:30:17;8.43;;;8.03;;
727;SDS011;347;48.780;9.158;2024-03-06T03:33:30;9.30;;;8.90;;
727;SDS011;347;48.780;9.158;2024-03-06T03:35:57;9.00;;;8.50;;
727;SDS011;347;48.780;9.158;2024-03-06T03:38:29;9.03;;;8.63;;
727;SDS011;347;48.780;9.158;2024-03-06T03:40:56;8.73;;;8.33;;
727;SDS011;347;48.780;9.158;2024-03-06T03:43:24;9.20;;;8.80;;
727;SDS011;347;48.780;9.158;2024-03-06T03:46:07;8.93;;;8.53;;
727;SDS011;347;48.780;9.158;2024-03-06T03:48:39;9.63;;;9.07;;
727;SDS011;347;48.780;9.158;2024-03-06T03:51:15;10.03;;;9.53;;
727;SDS011;347;48.780;9.158;2024-03-06T03:53:46;10.30;;;9.47;;
727;SDS011;347;48.780;9.158;2024-03-06T03:56:17;9.13;;;8.70;;
727;SDS011;347;48.780;9.158;2024-03-06T03:58:44;9.00;;;8.40;;
727;SDS011;347;48.780;9.158;2024-03-06T04:01:11;9.90;;;9.40;;
727;SDS011;347;48.780;9.158;2024-03-06T04:03:44;9.30;;;8.80;;
727;SDS011;347;48.780;9.158;2024-03-06T04:06:36;9.70;;;9.20;;
727;SDS011;347;48.780;9.158;2024-03-06T04:13:47;9.93;;;9.43;;
727;SDS011;347;48.780;9.158;2024-03-06T04:16:36;10.00;;;9.40;;
727;SDS011;347;48.780;9.158;2024-03-06T04:19:09;9.33;;;8.73;;
727;SDS011;347;48.780;9.158;2024-03-06T04:21:43;9.27;;;8.80;;
727;SDS011;347;48.780;9.158;2024-03-06T04:25:12;9.40;;;8.90;;
727;SDS011;347;48.780;9.158;2024-03-06T04:27:46;8.90;;;8.50;;
727;SDS011;347;48.780;9.158;2024-03-06T04:30:53;9.53;;;9.03;;
727;SDS011;347;48.780;9.158;2024-03-06T04:33:25;9.50;;;9.10;;
727;SDS011;347;48.780;9.158;2024-03-06T04:36:48;9.00;;;8.60;;
727;SDS011;347;48.780;9.158;2024-03-06T04:39:19;10.10;;;9.40;;
727;SDS011;347;48.780;9.158;2024-03-06T04:41:48;10.90;;;10.30;;
727;SDS011;347;48.780;9.158;2024-03-06T04:44:45;9.50;;;9.10;;
727;SDS011;347;48.780;9.158;2024-03-06T04:47:18;9.50;;;9.00;;
727;SDS011;347;48.780;9.158;2024-03-06T04:49:44;10.00;;;9.50;;
727;SDS011;347;48.780;9.158;2024-03-06T04:52:18;10.70;;;10.10;;
727;SDS011;347;48.780;9.158;2024-03-06T04:54:46;10.40;;;9.90;;
727;SDS011;347;48.780;9.158;2024-03-06T04:57:13;10.57;;;9.87;;
727;SDS011;347;48.780;9.158;2024-03-06T04:59:40;11.20;;;10.60;;
727;SDS011;347;48.780;9.158;2024-03-06T05:02:09;9.73;;;9.20;;
727;SDS011;347;48.780;9.158;2024-03-06T05:04:36;10.47;;;9.97;;
727;SDS011;347;48.780;9.158;2024-03-06T05:07:03;11.33;;;10.80;;
727;SDS011;347;48.780;9.158;2024-03-06T05:09:32;10.80;;;10.30;;
727;SDS011;347;48.780;9.158;2024-03-06T05:12:09;10.60;;;10.00;;
727;SDS011;347;48.780;9.158;2024-03-06T05:15:21;10.97;;;10.20;;
727;SDS011;347;48.780;9.158;2024-03-06T05:17:55;12.30;;;11.50;;
727;SDS011;347;48.780;9.158;2024-03-06T05:21:06;10.60;;;10.00;;
727;SDS011;347;48.780;9.158;2024-03-06T05:23:35;10.37;;;9.87;;
727;SDS011;347;48.780;9.158;2024-03-06T05:26:23;10.43;;;9.93;;
727;SDS011;347;48.780;9.158;2024-03-06T05:28:52;10.47;;;9.97;;
727;SDS011;347;48.780;9.158;2024-03-06T05:31:30;11.60;;;10.80;;
727;SDS011;347;48.780;9.158;2024-03-06T05:34:06;10.37;;;9.97;;
727;SDS011;347;48.780;9.158;2024-03-06T05:36:33;10.60;;;10.03;;
727;SDS011;347;48.780;9.158;2024-03-06T05:39:04;10.13;;;9.63;;
727;SDS011;347;48.780;9.158;2024-03-06T05:41:38;12.07;;;11.37;;
727;SDS011;347;48.780;9.158;2024-03-06T05:44:09;11.30;;;10.80;;
727;SDS011;347;48.780;9.158;2024-03-06T05:46:37;12.03;;;11.43;;
727;SDS011;347;48.780;9.158;2024-03-06T05:49:13;11.73;;;11.10;;
727;SDS011;347;48.780;9.158;2024-03-06T05:54:36;10.50;;;10.00;;
727;SDS011;347;48.780;9.158;2024-03-06T05:57:04;10.80;;;10.30;;
727;SDS011;347;48.780;9.158;2024-03-06T05:59:33;10.73;;;10.13;;
727;SDS011;347;48.780;9.158;2024-03-06T06:02:00;10.10;;;9.53;;
727;SDS011;347;48.780;9.158;2024-03-06T06:04:29;11.77;;;11.20;;
727;SDS011;347;48.780;9.158;2024-03-06T06:17:28;11.37;;;10.67;;
727;SDS011;347;48.780;9.158;2024-03-06T06:22:43;11.67;;;11.07;;
727;SDS011;347;48.780;9.158;2024-03-06T06:25:15;12.77;;;11.97;;
727;SDS011;347;48.780;9.158;2024-03-06T06:27:52;12.27;;;11.57;;
727;SDS011;347;48.780;9.158;2024-03-06T06:31:25;12.33;;;11.53;;
727;SDS011;347;48.780;9.158;2024-03-06T06:34:18;11.37;;;10.70;;
727;SDS011;347;48.780;9.158;2024-03-06T06:37:07;12.13;;;11.43;;
727;SDS011;347;48.780;9.158;2024-03-06T06:39:34;11.17;;;10.63;;
727;SDS011;347;48.780;9.158;2024-03-06T06:41:59;12.53;;;11.83;;
727;SDS011;347;48.780;9.158;2024-03-06T06:44:25;12.23;;;11.43;;
727;SDS011;347;48.780;9.158;2024-03-06T06:46:51;12.07;;;11.47;;
727;SDS011;347;48.780;9.158;2024-03-06T06:49:16;10.77;;;10.27;;
727;SDS011;347;48.780;9.158;2024-03-06T06:51:42;12.00;;;11.30;;
727;SDS011;347;48.780;9.158;2024-03-06T06:54:11;10.40;;;9.90;;
727;SDS011;347;48.780;9.158;2024-03-06T06:56:41;10.57;;;9.97;;
727;SDS011;347;48.780;9.158;2024-03-06T07:02:02;11.30;;;10.47;;
727;SDS011;347;48.780;9.158;2024-03-06T07:07:40;11.77;;;10.97;;
727;SDS011;347;48.780;9.158;2024-03-06T07:10:28;11.80;;;11.20;;
727;SDS011;347;48.780;9.158;2024-03-06T07:13:18;13.67;;;12.87;;
727;SDS011;347;48.780;9.158;2024-03-06T07:19:16;11.83;;;11.23;;
727;SDS011;347;48.780;9.158;2024-03-06T07:22:11;11.83;;;11.13;;
727;SDS011;347;48.780;9.158;2024-03-06T07:32:07;11.07;;;10.47;;
727;SDS011;347;48.780;9.158;2024-03-06T07:45:01;12.27;;;11.67;;
727;SDS011;347;48.780;9.158;2024-03-06T07:48:50;12.23;;;11.53;;
727;SDS011;347;48.780;9.158;2024-03-06T07:51:16;12.10;;;11.30;;
727;SDS011;347;48.780;9.158;2024-03-06T07:53:42;12.33;;;11.73;;
727;SDS011;347;48.780;9.158;2024-03-06T07:56:09;12.10;;;11.50;;
727;SDS011;347;48.780;9.158;2024-03-06T07:58:36;11.30;;;10.63;;
727;SDS011;347;48.780;9.158;2024-03-06T08:01:02;13.13;;;12.43;;
727;SDS011;347;48.780;9.158;2024-03-06T08:03:33;11.90;;;11.30;;
727;SDS011;347;48.780;9.158;2024-03-06T08:06:28;12.00;;;11.20;;
727;SDS011;347;48.780;9.158;2024-03-06T08:08:58;11.83;;;11.13;;
727;SDS011;347;48.780;9.158;2024-03-06T08:11:24;13.43;;;12.43;;
727;SDS011;347;48.780;9.158;2024-03-06T08:13:50;10.90;;;10.30;;
727;SDS011;347;48.780;9.158;2024-03-06T08:16:21;11.83;;;11.20;;
727;SDS011;347;48.780;9.158;2024-03-06T08:19:06;12.87;;;12.07;;
727;SDS011;347;48.780;9.158;2024-03-06T08:21:57;11.73;;;11.10;;
727;SDS011;347;48.780;9.158;2024-03-06T08:24:26;11.67;;;11.07;;
727;SDS011;347;48.780;9.158;2024-03-06T08:27:19;11.27;;;10.73;;
727;SDS011;347;48.780;9.158;2024-03-06T08:33:00;11.17;;;10.57;;
727;SDS011;347;48.780;9.158;2024-03-06T08:35:48;11.67;;;11.00;;
727;SDS011;347;48.780;9.158;2024-03-06T08:38:14;11.07;;;10.30;;
727;SDS011;347;48.780;9.158;2024-03-06T08:41:01;11.37;;;10.80;;
727;SDS011;347;48.780;9.158;2024-03-06T08:43:28;10.60;;;10.13;;
727;SDS011;347;48.780;9.158;2024-03-06T08:45:57;12.60;;;12.00;;
727;SDS011;347;48.780;9.158;2024-03-06T08:48:45;11.03;;;10.40;;
727;SDS011;347;48.780;9.158;2024-03-06T08:51:17;12.00;;;11.30;;
727;SDS011;347;48.780;9.158;2024-03-06T08:53:44;10.50;;;10.00;;
727;SDS011;347;48.780;9.158;2024-03-06T08:56:09;11.77;;;11.17;;
727;SDS011;347;48.780;9.158;2024-03-06T08:58:35;11.77;;;11.07;;
727;SDS011;347;48.780;9.158;2024-03-06T09:01:01;11.33;;;10.73;;
727;SDS011;347;48.780;9.158;2024-03-06T09:03:27;11.83;;;11.23;;
727;SDS011;347;48.780;9.158;2024-03-06T09:05:54;12.40;;;11.70;;
727;SDS011;347;48.780;9.158;2024-03-06T09:08:26;12.03;;;11.43;;
727;SDS011;347;48.780;9.158;2024-03-06T09:11:24;12.40;;;11.70;;
727;SDS011;347;48.780;9.158;2024-03-06T09:13:52;11.50;;;11.00;;
727;SDS011;347;48.780;9.158;2024-03-06T09:16:18;12.07;;;11.37;;
727;SDS011;347;48.780;9.158;2024-03-06T09:18:44;12.83;;;12.03;;
727;SDS011;347;48.780;9.158;2024-03-06T09:21:10;12.00;;;11.30;;
727;SDS011;347;48.780;9.158;2024-03-06T09:23:41;10.90;;;10.30;;
727;SDS011;347;48.780;9.158;2024-03-06T09:26:07;12.03;;;11.20;;
727;SDS011;347;48.780;9.158;2024-03-06T09:28:33;12.17;;;11.47;;
727;SDS011;347;48.780;9.158;2024-03-06T09:31:12;11.83;;;11.00;;
727;SDS011;347;48.780;9.158;2024-03-06T09:33:42;11.80;;;11.03;;
727;SDS011;347;48.780;9.158;2024-03-06T09:36:12;12.70;;;11.80;;
727;SDS011;347;48.780;9.158;2024-03-06T09:38:52;11.50;;;10.80;;
727;SDS011;347;48.780;9.158;2024-03-06T09:41:49;12.40;;;11.67;;
727;SDS011;347;48.780;9.158;2024-03-06T09:44:17;12.37;;;11.67;;
727;SDS011;347;48.780;9.158;2024-03-06T09:46:50;12.90;;;12.10;;
727;SDS011;347;48.780;9.158;2024-03-06T09:49:19;12.47;;;11.90;;
727;SDS011;347;48.780;9.158;2024-03-06T09:52:12;13.80;;;12.83;;
727;SDS011;347;48.780;9.158;2024-03-06T09:54:41;12.63;;;11.83;;
727;SDS011;347;48.780;9.158;2024-03-06T09:57:07;13.33;;;12.53;;
727;SDS011;347;48.780;9.158;2024-03-06T09:59:35;14.07;;;13.20;;
727;SDS011;347;48.780;9.158;2024-03-06T10:02:03;14.37;;;13.53;;
727;SDS011;347;48.780;9.158;2024-03-06T10:04:49;14.33;;;13.53;;
727;SDS011;347;48.780;9.158;2024-03-06T10:07:23;15.63;;;14.63;;
727;SDS011;347;48.780;9.158;2024-03-06T10:09:49;14.90;;;14.00;;
727;SDS011;347;48.780;9.158;2024-03-06T10:12:17;13.93;;;13.13;;
727;SDS011;347;48.780;9.158;2024-03-06T10:14:50;15.67;;;14.77;;
727;SDS011;347;48.780;9.158;2024-03-06T10:17:25;14.10;;;13.30;;
727;SDS011;347;48.780;9.158;2024-03-06T10:20:21;14.97;;;14.23;;
727;SDS011;347;48.780;9.158;2024-03-06T10:23:47;15.37;;;14.50;;
727;SDS011;347;48.780;9.158;2024-03-06T10:26:14;15.17;;;14.37;;
727;SDS011;347;48.780;9.158;2024-03-06T10:28:44;16.50;;;15.50;;
727;SDS011;347;48.780;9.158;2024-03-06T10:31:11;16.27;;;15.37;;
727;SDS011;347;48.780;9.158;2024-03-06T10:33:46;15.70;;;14.73;;
727;SDS011;347;48.780;9.158;2024-03-06T10:36:13;15.17;;;14.33;;
727;SDS011;347;48.780;9.158;2024-03-06T10:38:45;17.17;;;16.07;;
727;SDS011;347;48.780;9.158;2024-03-06T10:41:19;16.50;;;15.60;;
727;SDS011;347;48.780;9.158;2024-03-06T10:44:17;15.70;;;14.80;;
727;SDS011;347;48.780;9.158;2024-03-06T10:46:46;16.33;;;15.43;;
727;SDS011;347;48.780;9.158;2024-03-06T10:49:18;17.03;;;16.03;;
727;SDS011;347;48.780;9.158;2024-03-06T10:51:48;18.00;;;17.00;;
727;SDS011;347;48.780;9.158;2024-03-06T10:54:20;20.10;;;19.00;;
727;SDS011;347;48.780;9.158;2024-03-06T10:56:48;19.53;;;18.43;;
727;SDS011;347;48.780;9.158;2024-03-06T10:59:14;19.47;;;18.17;;
727;SDS011;347;48.780;9.158;2024-03-06T11:01:42;19.57;;;18.23;;
727;SDS011;347;48.780;9.158;2024-03-06T11:04:57;19.07;;;17.67;;
727;SDS011;347;48.780;9.158;2024-03-06T11:07:31;19.43;;;18.33;;
727;SDS011;347;48.780;9.158;2024-03-06T11:20:08;21.53;;;20.23;;
727;SDS011;347;48.780;9.158;2024-03-06T11:28:34;20.97;;;19.77;;
727;SDS011;347;48.780;9.158;2024-03-06T11:31:15;23.37;;;21.53;;
727;SDS011;347;48.780;9.158;2024-03-06T11:33:46;22.57;;;21.07;;
727;SDS011;347;48.780;9.158;2024-03-06T11:38:59;25.57;;;23.93;;
727;SDS011;347;48.780;9.158;2024-03-06T11:41:32;23.67;;;22.07;;
727;SDS011;347;48.780;9.158;2024-03-06T11:44:14;24.90;;;23.30;;
727;SDS011;347;48.780;9.158;2024-03-06T11:46:44;24.70;;;23.13;;
727;SDS011;347;48.780;9.158;2024-03-06T11:49:53;26.20;;;24.50;;
727;SDS011;347;48.780;9.158;2024-03-06T11:52:03;26.90;;;24.87;;
727;SDS011;347;48.780;9.158;2024-03-06T11:54:30;27.33;;;25.43;;
727;SDS011;347;48.780;9.158;2024-03-06T11:56:57;25.03;;;23.43;;
727;SDS011;347;48.780;9.158;2024-03-06T11:59:31;26.70;;;25.00;;
727;SDS011;347;48.780;9.158;2024-03-06T12:02:02;32.27;;;30.00;;
727;SDS011;347;48.780;9.158;2024-03-06T12:04:33;27.20;;;25.30;;
727;SDS011;347;48.780;9.158;2024-03-06T12:07:00;34.07;;;31.30;;
727;SDS011;347;48.780;9.158;2024-03-06T12:09:30;29.67;;;27.53;;
727;SDS011;347;48.780;9.158;2024-03-06T12:11:57;27.30;;;25.40;;
727;SDS011;347;48.780;9.158;2024-03-06T12:14:23;26.30;;;24.60;;
727;SDS011;347;48.780;9.158;2024-03-06T12:16:58;25.97;;;24.37;;
727;SDS011;347;48.780;9.158;2024-03-06T12:19:42;29.87;;;27.87;;
727;SDS011;347;48.780;9.158;2024-03-06T12:22:11;25.53;;;23.83;;
727;SDS011;347;48.780;9.158;2024-03-06T12:24:37;24.60;;;23.00;;
727;SDS011;347;48.780;9.158;2024-03-06T12:27:04;25.33;;;23.73;;
727;SDS011;347;48.780;9.158;2024-03-06T12:29:32;24.63;;;23.13;;
727;SDS011;347;48.780;9.158;2024-03-06T12:32:00;25.80;;;24.17;;
727;SDS011;347;48.780;9.158;2024-03-06T12:34:27;26.17;;;24.53;;
727;SDS011;347;48.780;9.158;2024-03-06T12:36:55;26.30;;;24.50;;
727;SDS011;347;48.780;9.158;2024-03-06T12:39:23;24.73;;;23.13;;
727;SDS011;347;48.780;9.158;2024-03-06T12:41:52;24.93;;;23.13;;
727;SDS011;347;48.780;9.158;2024-03-06T12:44:20;25.40;;;23.90;;
727;SDS011;347;48.780;9.158;2024-03-06T12:46:47;27.03;;;25.33;;
727;SDS011;347;48.780;9.158;2024-03-06T12:49:13;28.33;;;26.43;;
727;SDS011;347;48.780;9.158;2024-03-06T12:51:39;27.57;;;25.67;;
727;SDS011;347;48.780;9.158;2024-03-06T12:54:05;25.50;;;23.90;;
727;SDS011;347;48.780;9.158;2024-03-06T12:56:37;24.50;;;22.80;;
727;SDS011;347;48.780;9.158;2024-03-06T12:59:03;24.93;;;23.27;;
727;SDS011;347;48.780;9.158;2024-03-06T13:01:30;25.87;;;24.30;;
727;SDS011;347;48.780;9.158;2024-03-06T13:03:56;26.13;;;24.40;;
727;SDS011;347;48.780;9.158;2024-03-06T13:06:22;25.47;;;23.87;;
727;SDS011;347;48.780;9.158;2024-03-06T13:08:47;26.03;;;24.03;;
727;SDS011;347;48.780;9.158;2024-03-06T13:11:13;25.00;;;23.50;;
727;SDS011;347;48.780;9.158;2024-03-06T13:13:38;24.60;;;23.10;;
727;SDS011;347;48.780;9.158;2024-03-06T13:16:07;25.20;;;23.70;;
727;SDS011;347;48.780;9.158;2024-03-06T13:18:47;25.37;;;23.53;;
727;SDS011;347;48.780;9.158;2024-03-06T13:21:21;25.77;;;24.27;;
727;SDS011;347;48.780;9.158;2024-03-06T13:23:54;25.23;;;23.60;;
727;SDS011;347;48.780;9.158;2024-03-06T13:26:20;22.93;;;21.53;;
727;SDS011;347;48.780;9.158;2024-03-06T13:28:46;23.40;;;21.80;;
727;SDS011;347;48.780;9.158;2024-03-06T13:31:12;22.47;;;21.07;;
727;SDS011;347;48.780;9.158;2024-03-06T13:33:38;22.47;;;21.07;;
727;SDS011;347;48.780;9.158;2024-03-06T13:36:03;22.53;;;21.17;;
727;SDS011;347;48.780;9.158;2024-03-06T13:38:29;22.80;;;21.43;;
727;SDS011;347;48.780;9.158;2024-03-06T13:40:55;23.83;;;22.37;;
727;SDS011;347;48.780;9.158;2024-03-06T13:43:20;22.33;;;20.93;;
727;SDS011;347;48.780;9.158;2024-03-06T13:45:51;22.33;;;21.00;;
727;SDS011;347;48.780;9.158;2024-03-06T13:48:41;21.37;;;20.17;;
727;SDS011;347;48.780;9.158;2024-03-06T13:51:08;22.20;;;20.90;;
727;SDS011;347;48.780;9.158;2024-03-06T13:53:50;22.00;;;20.73;;
727;SDS011;347;48.780;9.158;2024-03-06T13:56:36;22.90;;;21.40;;
727;SDS011;347;48.780;9.158;2024-03-06T13:59:43;22.80;;;21.50;;
727;SDS011;347;48.780;9.158;2024-03-06T14:02:10;22.97;;;21.57;;
727;SDS011;347;48.780;9.158;2024-03-06T14:05:29;23.53;;;22.03;;
727;SDS011;347;48.780;9.158;2024-03-06T14:08:15;24.07;;;22.53;;
727;SDS011;347;48.780;9.158;2024-03-06T14:10:43;24.73;;;23.33;;
727;SDS011;347;48.780;9.158;2024-03-06T14:13:10;23.70;;;22.23;;
727;SDS011;347;48.780;9.158;2024-03-06T14:16:10;25.47;;;23.77;;
727;SDS011;347;48.780;9.158;2024-03-06T14:18:57;23.93;;;22.33;;
727;SDS011;347;48.780;9.158;2024-03-06T14:21:54;26.07;;;24.40;;
727;SDS011;347;48.780;9.158;2024-03-06T14:24:24;24.53;;;22.93;;
727;SDS011;347;48.780;9.158;2024-03-06T14:27:12;24.90;;;23.50;;
727;SDS011;347;48.780;9.158;2024-03-06T14:29:39;25.83;;;23.93;;
727;SDS011;347;48.780;9.158;2024-03-06T14:32:06;31.60;;;29.20;;
727;SDS011;347;48.780;9.158;2024-03-06T14:35:23;25.00;;;23.60;;
727;SDS011;347;48.780;9.158;2024-03-06T14:37:50;23.50;;;22.10;;
727;SDS011;347;48.780;9.158;2024-03-06T14:40:25;24.10;;;22.50;;
727;SDS011;347;48.780;9.158;2024-03-06T14:43:03;26.03;;;24.43;;
727;SDS011;347;48.780;9.158;2024-03-06T14:45:34;25.77;;;24.00;;
727;SDS011;347;48.780;9.158;2024-03-06T14:47:59;26.07;;;24.37;;
727;SDS011;347;48.780;9.158;2024-03-06T14:50:25;25.07;;;23.33;;
727;SDS011;347;48.780;9.158;2024-03-06T14:52:50;24.50;;;22.83;;
727;SDS011;347;48.780;9.158;2024-03-06T14:55:16;23.93;;;22.47;;
727;SDS011;347;48.780;9.158;2024-03-06T14:57:44;24.03;;;22.63;;
727;SDS011;347;48.780;9.158;2024-03-06T15:00:09;23.03;;;21.57;;
727;SDS011;347;48.780;9.158;2024-03-06T15:02:36;24.33;;;22.73;;
727;SDS011;347;48.780;9.158;2024-03-06T15:05:02;22.80;;;21.37;;
727;SDS011;347;48.780;9.158;2024-03-06T15:07:28;20.33;;;19.13;;
727;SDS011;347;48.780;9.158;2024-03-06T15:09:54;21.83;;;20.40;;
727;SDS011;347;48.780;9.158;2024-03-06T15:12:24;22.27;;;20.93;;
727;SDS011;347;48.780;9.158;2024-03-06T15:14:54;23.80;;;22.30;;
727;SDS011;347;48.780;9.158;2024-03-06T15:17:23;22.07;;;20.50;;
727;SDS011;347;48.780;9.158;2024-03-06T15:19:52;22.47;;;21.03;;
727;SDS011;347;48.780;9.158;2024-03-06T15:22:18;22.07;;;20.60;;
727;SDS011;347;48.780;9.158;2024-03-06T15:24:43;24.53;;;22.93;;
727;SDS011;347;48.780;9.158;2024-03-06T15:27:12;23.30;;;21.90;;
727;SDS011;347;48.780;9.158;2024-03-06T15:29:41;25.33;;;23.73;;
727;SDS011;347;48.780;9.158;2024-03-06T15:32:08;25.43;;;23.83;;
727;SDS011;347;48.780;9.158;2024-03-06T15:34:35;23.50;;;22.00;;
727;SDS011;347;48.780;9.158;2024-03-06T15:37:01;24.03;;;22.43;;
727;SDS011;347;48.780;9.158;2024-03-06T15:39:27;25.97;;;24.30;;
727;SDS011;347;48.780;9.158;2024-03-06T15:41:53;26.43;;;24.47;;
727;SDS011;347;48.780;9.158;2024-03-06T15:44:19;26.40;;;24.63;;
727;SDS011;347;48.780;9.158;2024-03-06T15:46:44;25.93;;;24.17;;
727;SDS011;347;48.780;9.158;2024-03-06T15:49:20;27.27;;;25.37;;
727;SDS011;347;48.780;9.158;2024-03-06T15:51:49;27.13;;;25.33;;
727;SDS011;347;48.780;9.158;2024-03-06T15:54:15;25.70;;;24.00;;
727;SDS011;347;48.780;9.158;2024-03-06T15:56:40;26.10;;;24.40;;
727;SDS011;347;48.780;9.158;2024-03-06T15:59:06;25.50;;;23.90;;
727;SDS011;347;48.780;9.158;2024-03-06T16:01:32;26.70;;;25.00;;
727;SDS011;347;48.780;9.158;2024-03-06T16:03:57;25.77;;;24.00;;
727;SDS011;347;48.780;9.158;2024-03-06T16:06:23;27.33;;;25.43;;
727;SDS011;347;48.780;9.158;2024-03-06T16:08:48;27.60;;;25.80;;
727;SDS011;347;48.780;9.158;2024-03-06T16:11:17;28.10;;;26.17;;
727;SDS011;347;48.780;9.158;2024-03-06T16:13:44;28.80;;;26.80;;
727;SDS011;347;48.780;9.158;2024-03-06T16:16:09;26.43;;;24.63;;
727;SDS011;347;48.780;9.158;2024-03-06T16:18:35;27.30;;;25.50;;
727;SDS011;347;48.780;9.158;2024-03-06T16:21:01;27.10;;;25.10;;
727;SDS011;347;48.780;9.158;2024-03-06T16:23:27;26.30;;;24.40;;
727;SDS011;347;48.780;9.158;2024-03-06T16:25:53;27.30;;;25.20;;
727;SDS011;347;48.780;9.158;2024-03-06T16:28:19;28.87;;;26.57;;
727;SDS011;347;48.780;9.158;2024-03-06T16:30:45;29.77;;;27.57;;
727;SDS011;347;48.780;9.158;2024-03-06T16:33:11;29.03;;;26.83;;
727;SDS011;347;48.780;9.158;2024-03-06T16:35:36;29.53;;;27.40;;
727;SDS011;347;48.780;9.158;2024-03-06T16:38:05;28.23;;;26.23;;
727;SDS011;347;48.780;9.158;2024-03-06T16:40:31;27.70;;;25.73;;
727;SDS011;347;48.780;9.158;2024-03-06T16:42:56;30.03;;;27.87;;
727;SDS011;347;48.780;9.158;2024-03-06T16:45:22;28.30;;;26.30;;
727;SDS011;347;48.780;9.158;2024-03-06T16:47:47;28.83;;;26.63;;
727;SDS011;347;48.780;9.158;2024-03-06T16:50:13;28.50;;;26.40;;
727;SDS011;347;48.780;9.158;2024-03-06T16:52:39;28.53;;;26.50;;
727;SDS011;347;48.780;9.158;2024-03-06T16:55:05;28.20;;;26.30;;
727;SDS011;347;48.780;9.158;2024-03-06T16:57:35;29.47;;;27.20;;
727;SDS011;347;48.780;9.158;2024-03-06T17:00:02;30.07;;;27.90;;
727;SDS011;347;48.780;9.158;2024-03-06T17:02:28;30.57;;;28.43;;
727;SDS011;347;48.780;9.158;2024-03-06T17:04:54;30.77;;;28.50;;